Time;durP1;ratioP1;P1;durP2;ratioP2;P2;SDS_P1;SDS_P2;PMS_P1;PMS_P2;Temp;Humidity;BMP_temperature;BMP_pressure;BME280_temperature;BME280_humidity;BME280_pressure;Samples;Min_cycle;Max_cycle;Signal;HPM_P1;HPM_P2
2020/12/22 00:02:11;;;;;;;2.28;2.08;;;;;;;;;;4919519;29;20095;-87
2020/12/22 00:04:36;;;;;;;2.22;1.42;;;;;;;;;;4920010;29;20019;-88
2020/12/22 00:07:01;;;;;;;3.10;1.52;;;;;;;;;;4920682;29;20045;-87
2020/12/22 00:09:27;;;;;;;1.77;1.20;;;;;;;;;;4920433;29;20157;-88
2020/12/22 00:11:52;;;;;;;7.03;1.20;;;;;;;;;;4920380;29;20383;-87
2020/12/22 00:14:17;;;;;;;4.85;1.30;;;;;;;;;;4908697;29;20024;-88
2020/12/22 00:16:42;;;;;;;3.53;0.70;;;;;;;;;;4914097;29;20030;-88
2020/12/22 00:19:08;;;;;;;3.17;0.70;;;;;;;;;;4915992;29;20028;-88
2020/12/22 00:21:33;;;;;;;3.83;1.02;;;;;;;;;;4906446;29;20024;-85
2020/12/22 00:23:59;;;;;;;2.38;0.80;;;;;;;;;;4938045;29;20052;-88
2020/12/22 00:26:24;;;;;;;1.40;0.95;;;;;;;;;;4936559;29;20082;-87
2020/12/22 00:28:49;;;;;;;2.55;0.90;;;;;;;;;;4920091;29;20028;-88
2020/12/22 00:31:14;;;;;;;2.60;0.68;;;;;;;;;;4919833;29;20028;-86
2020/12/22 00:33:40;;;;;;;2.25;1.00;;;;;;;;;;4937044;29;20443;-88
2020/12/22 00:36:06;;;;;;;4.85;1.55;;;;;;;;;;4919532;29;20027;-87
2020/12/22 00:38:31;;;;;;;1.75;1.10;;;;;;;;;;4919665;29;20491;-87
2020/12/22 00:40:56;;;;;;;3.45;0.93;;;;;;;;;;4919311;29;20020;-88
2020/12/22 00:43:21;;;;;;;2.60;1.15;;;;;;;;;;4920236;29;20079;-88
2020/12/22 00:45:47;;;;;;;5.40;1.30;;;;;;;;;;4913417;29;20696;-88
2020/12/22 00:48:12;;;;;;;6.57;1.20;;;;;;;;;;4928065;29;20443;-88
2020/12/22 00:50:37;;;;;;;2.25;1.02;;;;;;;;;;4903843;29;20043;-88
2020/12/22 00:53:02;;;;;;;4.00;0.82;;;;;;;;;;4934912;29;20432;-88
2020/12/22 00:55:27;;;;;;;3.30;0.88;;;;;;;;;;4917694;29;20024;-88
2020/12/22 00:57:52;;;;;;;4.40;1.10;;;;;;;;;;4917834;29;20363;-88
2020/12/22 01:00:18;;;;;;;4.10;0.90;;;;;;;;;;4933261;29;20123;-88
2020/12/22 01:02:43;;;;;;;4.10;0.80;;;;;;;;;;4903948;29;20023;-88
2020/12/22 01:05:08;;;;;;;3.78;1.00;;;;;;;;;;4917316;29;20020;-87
2020/12/22 01:07:33;;;;;;;2.08;0.90;;;;;;;;;;4917136;29;20012;-88
2020/12/22 01:09:59;;;;;;;2.10;0.63;;;;;;;;;;4933634;29;20497;-88
2020/12/22 01:12:24;;;;;;;5.57;0.98;;;;;;;;;;4934035;29;20035;-88
2020/12/22 01:14:49;;;;;;;3.72;0.70;;;;;;;;;;4917178;29;20537;-87
2020/12/22 01:17:14;;;;;;;3.58;0.70;;;;;;;;;;4908249;29;20444;-88
2020/12/22 01:19:40;;;;;;;4.90;0.80;;;;;;;;;;4916176;29;20038;-89
2020/12/22 01:22:05;;;;;;;5.10;0.90;;;;;;;;;;4936064;29;20015;-87
2020/12/22 01:24:30;;;;;;;4.45;1.00;;;;;;;;;;4919762;29;20051;-88
2020/12/22 01:26:55;;;;;;;5.40;0.80;;;;;;;;;;4918678;29;20430;-88
2020/12/22 01:29:21;;;;;;;7.82;1.02;;;;;;;;;;4935934;29;20058;-88
2020/12/22 01:31:46;;;;;;;4.47;0.75;;;;;;;;;;4918432;29;20119;-89
2020/12/22 01:34:12;;;;;;;3.53;0.73;;;;;;;;;;4918855;29;20024;-88
2020/12/22 01:36:37;;;;;;;2.03;0.70;;;;;;;;;;4917786;29;20023;-88
2020/12/22 01:39:02;;;;;;;2.80;0.77;;;;;;;;;;4905815;29;20383;-89
2020/12/22 01:41:32;;;;;;;3.08;0.80;;;;;;;;;;4935485;29;20470;-89
2020/12/22 01:44:04;;;;;;;4.65;1.13;;;;;;;;;;4935537;29;20007;-89
2020/12/22 01:46:32;;;;;;;3.08;0.93;;;;;;;;;;4907768;29;20016;-88
2020/12/22 01:48:58;;;;;;;4.20;0.90;;;;;;;;;;4915974;29;20490;-88
2020/12/22 01:51:23;;;;;;;5.60;0.60;;;;;;;;;;4908556;29;20047;-88
2020/12/22 01:53:49;;;;;;;5.65;1.10;;;;;;;;;;4910903;29;20062;-90
2020/12/22 01:56:14;;;;;;;7.53;1.33;;;;;;;;;;4918052;29;20474;-87
2020/12/22 01:58:39;;;;;;;3.72;1.23;;;;;;;;;;4918679;29;20025;-88
2020/12/22 02:01:04;;;;;;;6.25;1.17;;;;;;;;;;4917667;29;20031;-89
2020/12/22 02:03:29;;;;;;;2.90;1.02;;;;;;;;;;4918516;29;20016;-89
2020/12/22 02:05:55;;;;;;;6.00;1.15;;;;;;;;;;4917984;29;20039;-88
2020/12/22 02:08:20;;;;;;;9.05;1.30;;;;;;;;;;4904653;29;20026;-88
2020/12/22 02:10:49;;;;;;;4.15;0.90;;;;;;;;;;4935044;29;20019;-89
2020/12/22 02:13:14;;;;;;;4.75;1.25;;;;;;;;;;4918459;29;20019;-88
2020/12/22 02:15:39;;;;;;;2.65;0.98;;;;;;;;;;4917736;29;20024;-88
2020/12/22 02:18:04;;;;;;;5.40;1.15;;;;;;;;;;4934879;29;20027;-88
2020/12/22 02:20:29;;;;;;;1.52;0.80;;;;;;;;;;4917698;29;20094;-89
2020/12/22 02:22:55;;;;;;;4.28;0.95;;;;;;;;;;4919893;29;20456;-89
2020/12/22 02:25:20;;;;;;;3.75;0.80;;;;;;;;;;4921681;29;20019;-89
2020/12/22 02:27:45;;;;;;;2.63;0.60;;;;;;;;;;4918410;29;20024;-89
2020/12/22 02:30:10;;;;;;;2.55;0.80;;;;;;;;;;4916805;29;20027;-88
2020/12/22 02:32:35;;;;;;;2.25;0.57;;;;;;;;;;4918383;29;20476;-89
2020/12/22 02:35:01;;;;;;;2.50;0.80;;;;;;;;;;4934642;29;20119;-88
2020/12/22 02:37:27;;;;;;;3.40;0.57;;;;;;;;;;4935182;29;20059;-89
2020/12/22 02:39:52;;;;;;;4.13;0.80;;;;;;;;;;4917522;29;20483;-88
2020/12/22 02:42:17;;;;;;;2.20;0.65;;;;;;;;;;4935242;29;20423;-88
2020/12/22 02:44:42;;;;;;;5.65;0.95;;;;;;;;;;4935197;29;20091;-87
2020/12/22 02:47:10;;;;;;;4.20;0.80;;;;;;;;;;4912147;29;20026;-87
2020/12/22 02:49:35;;;;;;;5.13;1.23;;;;;;;;;;4898666;29;20036;-87
2020/12/22 02:52:00;;;;;;;2.05;0.88;;;;;;;;;;4915259;29;20032;-88
2020/12/22 02:54:25;;;;;;;2.17;0.73;;;;;;;;;;4917936;29;20040;-87
2020/12/22 02:56:51;;;;;;;2.17;0.63;;;;;;;;;;4917466;29;20024;-87
2020/12/22 02:59:16;;;;;;;6.30;0.88;;;;;;;;;;4934381;29;20015;-87
2020/12/22 03:01:41;;;;;;;2.65;0.75;;;;;;;;;;4917204;29;20465;-86
2020/12/22 03:04:06;;;;;;;2.35;0.70;;;;;;;;;;4917021;29;20119;-86
2020/12/22 03:06:31;;;;;;;2.75;0.98;;;;;;;;;;4916652;29;20082;-87
2020/12/22 03:08:56;;;;;;;3.83;0.95;;;;;;;;;;4917649;29;20056;-87
2020/12/22 03:11:22;;;;;;;0.95;0.63;;;;;;;;;;4933774;29;20023;-87
2020/12/22 03:13:47;;;;;;;4.40;1.05;;;;;;;;;;4934315;29;20031;-87
2020/12/22 03:16:12;;;;;;;8.10;2.25;;;;;;;;;;4916228;29;20028;-87
2020/12/22 03:18:37;;;;;;;10.35;3.22;;;;;;;;;;4917267;29;20028;-86
2020/12/22 03:21:03;;;;;;;7.57;2.10;;;;;;;;;;4916667;29;20115;-87
2020/12/22 03:23:28;;;;;;;3.20;1.10;;;;;;;;;;4917453;29;20380;-87
2020/12/22 03:25:53;;;;;;;4.45;1.70;;;;;;;;;;4917328;29;20027;-87
2020/12/22 03:28:19;;;;;;;6.07;1.77;;;;;;;;;;4917167;29;20024;-87
2020/12/22 03:30:44;;;;;;;4.38;1.52;;;;;;;;;;4933766;29;20023;-88
2020/12/22 03:33:09;;;;;;;5.90;1.40;;;;;;;;;;4912694;29;20480;-88
2020/12/22 03:35:34;;;;;;;3.40;0.77;;;;;;;;;;4908417;29;20011;-88
2020/12/22 03:37:59;;;;;;;2.25;0.70;;;;;;;;;;4904229;29;20023;-89
2020/12/22 03:40:26;;;;;;;1.63;0.47;;;;;;;;;;4917205;29;20140;-87
2020/12/22 03:42:51;;;;;;;3.42;0.88;;;;;;;;;;4904278;29;20115;-88
2020/12/22 03:45:17;;;;;;;1.25;0.70;;;;;;;;;;4937702;29;20111;-88
2020/12/22 03:47:43;;;;;;;1.17;0.73;;;;;;;;;;4905789;29;20024;-88
2020/12/22 03:50:08;;;;;;;1.58;0.70;;;;;;;;;;4932835;29;20062;-87
2020/12/22 03:52:35;;;;;;;1.38;0.65;;;;;;;;;;4907243;29;20051;-87
2020/12/22 03:55:00;;;;;;;1.30;0.70;;;;;;;;;;4913064;29;20883;-87
2020/12/22 03:57:25;;;;;;;0.80;0.60;;;;;;;;;;4917051;29;20114;-87
2020/12/22 03:59:51;;;;;;;2.80;0.80;;;;;;;;;;4917663;29;20026;-87
2020/12/22 04:02:16;;;;;;;3.42;0.75;;;;;;;;;;4920585;29;20058;-87
2020/12/22 04:04:41;;;;;;;0.93;0.60;;;;;;;;;;4919937;29;20182;-87
2020/12/22 04:07:06;;;;;;;1.23;0.65;;;;;;;;;;4907091;29;20043;-87
2020/12/22 04:09:31;;;;;;;1.08;0.50;;;;;;;;;;4919847;29;20038;-87
2020/12/22 04:11:57;;;;;;;0.55;0.50;;;;;;;;;;4919294;29;20069;-87
2020/12/22 04:14:22;;;;;;;2.08;0.60;;;;;;;;;;4919239;29;20031;-87
2020/12/22 04:16:48;;;;;;;1.48;0.52;;;;;;;;;;4906571;29;20467;-87
2020/12/22 04:19:13;;;;;;;0.82;0.70;;;;;;;;;;4919981;29;20016;-87
2020/12/22 04:21:39;;;;;;;2.35;0.82;;;;;;;;;;4925324;29;20027;-87
2020/12/22 04:24:04;;;;;;;1.40;0.70;;;;;;;;;;4918220;29;20375;-88
2020/12/22 04:26:30;;;;;;;2.25;0.70;;;;;;;;;;4920030;29;20027;-87
2020/12/22 04:28:55;;;;;;;1.65;0.60;;;;;;;;;;4920013;29;20024;-87
2020/12/22 04:31:21;;;;;;;1.20;0.60;;;;;;;;;;4919542;29;20415;-87
2020/12/22 04:33:47;;;;;;;0.77;0.47;;;;;;;;;;4919229;29;20031;-88
2020/12/22 04:36:12;;;;;;;4.03;0.60;;;;;;;;;;4919824;29;20027;-88
2020/12/22 04:38:37;;;;;;;2.03;0.90;;;;;;;;;;4919656;29;20118;-87
2020/12/22 04:41:03;;;;;;;2.83;0.80;;;;;;;;;;4919952;29;20020;-87
2020/12/22 04:43:29;;;;;;;1.77;0.80;;;;;;;;;;4919318;29;20019;-88
2020/12/22 04:45:57;;;;;;;0.90;0.60;;;;;;;;;;4936288;29;20031;-87
2020/12/22 04:48:24;;;;;;;2.75;1.08;;;;;;;;;;4905641;29;20693;-88
2020/12/22 04:50:49;;;;;;;2.00;0.50;;;;;;;;;;4919424;29;20016;-88
2020/12/22 04:53:15;;;;;;;1.23;0.60;;;;;;;;;;4905868;29;20024;-87
2020/12/22 04:55:40;;;;;;;2.90;0.70;;;;;;;;;;4919259;29;20058;-88
2020/12/22 04:58:06;;;;;;;1.55;0.57;;;;;;;;;;4919254;29;20364;-87
2020/12/22 05:00:31;;;;;;;0.90;0.50;;;;;;;;;;4918986;29;20441;-87
2020/12/22 05:02:57;;;;;;;1.33;0.40;;;;;;;;;;4919586;29;20062;-87
2020/12/22 05:05:23;;;;;;;0.57;0.50;;;;;;;;;;4918831;29;20020;-86
2020/12/22 05:07:48;;;;;;;1.23;0.52;;;;;;;;;;4936657;29;20030;-90
2020/12/22 05:10:13;;;;;;;1.48;0.57;;;;;;;;;;4919373;29;20472;-87
2020/12/22 05:12:39;;;;;;;1.25;0.50;;;;;;;;;;4917905;29;20127;-87
2020/12/22 05:15:05;;;;;;;1.00;0.30;;;;;;;;;;4918898;29;20023;-87
2020/12/22 05:17:31;;;;;;;0.73;0.60;;;;;;;;;;4918982;29;20035;-87
2020/12/22 05:19:56;;;;;;;1.88;0.60;;;;;;;;;;4936215;29;20027;-88
2020/12/22 05:22:22;;;;;;;3.50;0.68;;;;;;;;;;4905856;29;20031;-88
2020/12/22 05:24:49;;;;;;;0.50;0.40;;;;;;;;;;4918936;29;20023;-87
2020/12/22 05:27:15;;;;;;;1.63;0.60;;;;;;;;;;4905530;29;20054;-88
2020/12/22 05:29:40;;;;;;;3.28;0.70;;;;;;;;;;4918670;29;20031;-88
2020/12/22 05:32:05;;;;;;;2.15;0.95;;;;;;;;;;4918588;29;20394;-88
2020/12/22 05:34:31;;;;;;;0.60;0.60;;;;;;;;;;4904926;29;20020;-87
2020/12/22 05:37:00;;;;;;;2.92;0.60;;;;;;;;;;4911186;29;20091;-88
2020/12/22 05:39:26;;;;;;;4.20;0.70;;;;;;;;;;4915687;29;20036;-81
2020/12/22 05:41:51;;;;;;;0.70;0.60;;;;;;;;;;4915988;29;20035;-81
2020/12/22 05:44:16;;;;;;;5.28;0.80;;;;;;;;;;4915250;29;20031;-81
2020/12/22 05:46:41;;;;;;;1.30;0.80;;;;;;;;;;4914699;29;20107;-81
2020/12/22 05:49:08;;;;;;;3.70;0.60;;;;;;;;;;4915693;29;20028;-81
2020/12/22 05:51:33;;;;;;;1.70;0.65;;;;;;;;;;4915386;29;20078;-81
2020/12/22 05:54:06;;;;;;;2.75;0.95;;;;;;;;;;4915212;29;20035;-81
2020/12/22 05:56:32;;;;;;;3.53;0.70;;;;;;;;;;4915442;29;20082;-81
2020/12/22 05:58:57;;;;;;;1.75;0.60;;;;;;;;;;4915457;29;20435;-81
2020/12/22 06:01:30;;;;;;;2.45;0.63;;;;;;;;;;4914663;29;20074;-81
2020/12/22 06:03:56;;;;;;;7.43;0.70;;;;;;;;;;4915746;29;20067;-81
2020/12/22 06:06:21;;;;;;;0.85;0.50;;;;;;;;;;4934485;29;20032;-81
2020/12/22 06:08:49;;;;;;;1.05;0.60;;;;;;;;;;4916995;29;20028;-81
2020/12/22 06:11:14;;;;;;;3.03;0.60;;;;;;;;;;4916429;29;20137;-81
2020/12/22 06:13:40;;;;;;;2.10;0.60;;;;;;;;;;4916797;29;20448;-81
2020/12/22 06:16:11;;;;;;;2.97;0.50;;;;;;;;;;4933365;29;20154;-81
2020/12/22 06:18:37;;;;;;;2.17;0.50;;;;;;;;;;4917106;29;20078;-81
2020/12/22 06:21:02;;;;;;;1.65;0.55;;;;;;;;;;4916830;29;20768;-81
2020/12/22 06:23:27;;;;;;;3.60;0.65;;;;;;;;;;4933441;29;20015;-81
2020/12/22 06:26:02;;;;;;;2.00;0.70;;;;;;;;;;4913110;29;20021;-81
2020/12/22 06:28:31;;;;;;;10.10;1.20;;;;;;;;;;4905918;29;20487;-81
2020/12/22 06:30:56;;;;;;;3.80;0.60;;;;;;;;;;4902286;29;20020;-81
2020/12/22 06:33:22;;;;;;;2.83;0.70;;;;;;;;;;4912492;29;20514;-81
2020/12/22 06:36:02;;;;;;;1.35;0.50;;;;;;;;;;4916929;29;20039;-81
2020/12/22 06:38:44;;;;;;;2.15;0.75;;;;;;;;;;4922581;29;20095;-81
2020/12/22 06:41:10;;;;;;;7.88;0.82;;;;;;;;;;4916698;29;20024;-79
2020/12/22 06:43:41;;;;;;;2.58;0.70;;;;;;;;;;4914987;29;20512;-79
2020/12/22 06:46:30;;;;;;;1.48;0.52;;;;;;;;;;4912316;29;20023;-79
2020/12/22 06:48:55;;;;;;;4.10;0.60;;;;;;;;;;4911234;29;20118;-79
2020/12/22 06:51:21;;;;;;;1.38;0.63;;;;;;;;;;4925135;29;20103;-79
2020/12/22 06:53:46;;;;;;;3.10;1.30;;;;;;;;;;4914847;29;20151;-79
2020/12/22 06:56:11;;;;;;;4.82;0.60;;;;;;;;;;4912301;29;20514;-79
2020/12/22 06:58:47;;;;;;;5.03;0.75;;;;;;;;;;4913171;29;20110;-78
2020/12/22 07:01:25;;;;;;;3.35;0.63;;;;;;;;;;4919409;29;20024;-79
2020/12/22 07:03:53;;;;;;;1.42;0.50;;;;;;;;;;4924188;29;20035;-79
2020/12/22 07:06:42;;;;;;;7.15;0.80;;;;;;;;;;4921588;29;20038;-79
2020/12/22 07:09:10;;;;;;;3.08;0.70;;;;;;;;;;4913645;29;20119;-79
2020/12/22 07:11:36;;;;;;;3.63;0.60;;;;;;;;;;4916052;29;20024;-80
2020/12/22 07:14:02;;;;;;;3.30;0.50;;;;;;;;;;4917054;29;20435;-79
2020/12/22 07:16:28;;;;;;;2.78;0.65;;;;;;;;;;4915302;29;20579;-79
2020/12/22 07:18:53;;;;;;;2.83;0.60;;;;;;;;;;4915703;29;20114;-79
2020/12/22 07:21:18;;;;;;;2.75;0.60;;;;;;;;;;4915254;29;20028;-78
2020/12/22 07:23:44;;;;;;;5.13;0.50;;;;;;;;;;4915642;29;20434;-79
2020/12/22 07:26:10;;;;;;;2.70;0.60;;;;;;;;;;4913551;29;20023;-79
2020/12/22 07:28:35;;;;;;;3.53;0.80;;;;;;;;;;4914061;29;20054;-79
2020/12/22 07:31:01;;;;;;;2.72;0.68;;;;;;;;;;4914190;29;20484;-79
2020/12/22 07:33:26;;;;;;;5.95;0.50;;;;;;;;;;4912427;29;20364;-79
2020/12/22 07:35:51;;;;;;;1.58;0.30;;;;;;;;;;4918288;29;20026;-79
2020/12/22 07:38:16;;;;;;;4.32;0.45;;;;;;;;;;4936352;29;20723;-80
2020/12/22 07:40:42;;;;;;;3.15;0.50;;;;;;;;;;4936786;29;20023;-81
2020/12/22 07:43:11;;;;;;;1.88;0.50;;;;;;;;;;4919285;29;20012;-80
2020/12/22 07:45:45;;;;;;;1.60;0.60;;;;;;;;;;4919030;29;20027;-81
2020/12/22 07:48:11;;;;;;;2.70;0.80;;;;;;;;;;4932121;29;20031;-79
2020/12/22 07:50:36;;;;;;;1.67;0.70;;;;;;;;;;4905496;29;20115;-79
2020/12/22 07:53:02;;;;;;;2.65;0.65;;;;;;;;;;4916083;29;20022;-78
2020/12/22 07:55:35;;;;;;;6.90;0.80;;;;;;;;;;4923048;29;20031;-80
2020/12/22 07:58:01;;;;;;;2.35;0.82;;;;;;;;;;4918561;29;20593;-80
2020/12/22 08:00:27;;;;;;;6.10;0.90;;;;;;;;;;4917499;29;20171;-79
2020/12/22 08:02:52;;;;;;;6.18;0.85;;;;;;;;;;4914002;29;20114;-80
2020/12/22 08:05:17;;;;;;;3.53;0.52;;;;;;;;;;4917872;29;20043;-80
2020/12/22 08:07:50;;;;;;;2.53;0.65;;;;;;;;;;4917888;29;20024;-80
2020/12/22 08:10:15;;;;;;;1.33;0.60;;;;;;;;;;4911146;29;20028;-81
2020/12/22 08:12:41;;;;;;;3.90;0.68;;;;;;;;;;4917567;29;20520;-81
2020/12/22 08:15:07;;;;;;;3.42;0.65;;;;;;;;;;4934806;29;20042;-81
2020/12/22 08:17:34;;;;;;;1.08;0.35;;;;;;;;;;4918615;29;20035;-80
2020/12/22 08:20:00;;;;;;;3.05;0.68;;;;;;;;;;4913558;29;20028;-80
2020/12/22 08:22:25;;;;;;;2.03;0.60;;;;;;;;;;4934996;29;20030;-80
2020/12/22 08:24:51;;;;;;;2.83;0.50;;;;;;;;;;4916170;29;20106;-81
2020/12/22 08:27:16;;;;;;;2.47;0.70;;;;;;;;;;4913391;29;20047;-81
2020/12/22 08:29:42;;;;;;;2.65;0.57;;;;;;;;;;4918509;29;20042;-81
2020/12/22 08:32:07;;;;;;;3.33;0.52;;;;;;;;;;4916160;29;20023;-80
2020/12/22 08:34:32;;;;;;;1.40;0.50;;;;;;;;;;4912633;29;20054;-81
2020/12/22 08:37:07;;;;;;;0.80;0.35;;;;;;;;;;4913452;29;20031;-81
2020/12/22 08:39:37;;;;;;;2.30;0.40;;;;;;;;;;4917781;29;20035;-81
2020/12/22 08:42:05;;;;;;;1.73;0.40;;;;;;;;;;4921259;29;20075;-80
2020/12/22 08:44:31;;;;;;;3.03;0.47;;;;;;;;;;4917637;29;20427;-80
2020/12/22 08:47:08;;;;;;;3.45;0.40;;;;;;;;;;4916663;29;20111;-81
2020/12/22 08:49:33;;;;;;;0.95;0.40;;;;;;;;;;4915682;29;20034;-80
2020/12/22 08:52:08;;;;;;;2.45;0.50;;;;;;;;;;4935148;29;20494;-81
2020/12/22 08:54:33;;;;;;;3.30;0.52;;;;;;;;;;4916720;29;20031;-81
2020/12/22 08:57:08;;;;;;;3.35;0.68;;;;;;;;;;4916301;29;20039;-81
2020/12/22 08:59:34;;;;;;;3.25;0.40;;;;;;;;;;4925736;29;20046;-81
2020/12/22 09:01:59;;;;;;;1.45;0.40;;;;;;;;;;4887775;29;589178;-81
2020/12/22 09:04:28;;;;;;;3.75;0.40;;;;;;;;;;4912022;29;20039;-80
2020/12/22 09:06:54;;;;;;;2.80;0.40;;;;;;;;;;4915934;29;20471;-80
2020/12/22 09:09:32;;;;;;;2.85;0.43;;;;;;;;;;4917881;29;20126;-80
2020/12/22 09:12:04;;;;;;;1.55;0.40;;;;;;;;;;4929619;29;20095;-80
2020/12/22 09:14:39;;;;;;;0.95;0.43;;;;;;;;;;4918228;29;20034;-81
2020/12/22 09:17:05;;;;;;;3.47;0.60;;;;;;;;;;4911222;29;20012;-80
2020/12/22 09:19:47;;;;;;;2.08;0.60;;;;;;;;;;4929981;29;20043;-81
2020/12/22 09:22:12;;;;;;;1.60;0.70;;;;;;;;;;4914103;29;20120;-80
2020/12/22 09:24:38;;;;;;;1.13;0.90;;;;;;;;;;4927364;29;20115;-80
2020/12/22 09:27:05;;;;;;;2.78;0.70;;;;;;;;;;4934438;29;20011;-80
2020/12/22 09:29:30;;;;;;;2.05;0.52;;;;;;;;;;4912824;29;20122;-81
2020/12/22 09:31:57;;;;;;;2.22;0.77;;;;;;;;;;4916740;29;20130;-81
2020/12/22 09:34:23;;;;;;;3.53;0.90;;;;;;;;;;4933982;29;20059;-80
2020/12/22 09:36:49;;;;;;;1.80;0.77;;;;;;;;;;4915910;29;20098;-80
2020/12/22 09:39:14;;;;;;;5.32;0.55;;;;;;;;;;4916358;29;20122;-80
2020/12/22 09:41:41;;;;;;;1.65;0.68;;;;;;;;;;4916293;29;20054;-81
2020/12/22 09:44:06;;;;;;;3.60;0.50;;;;;;;;;;4909483;29;20499;-81
2020/12/22 09:46:31;;;;;;;2.58;0.70;;;;;;;;;;4917901;29;20123;-80
2020/12/22 09:48:56;;;;;;;3.25;0.55;;;;;;;;;;4934399;29;20047;-81
2020/12/22 09:51:22;;;;;;;4.70;0.60;;;;;;;;;;4917221;29;20098;-80
2020/12/22 09:53:47;;;;;;;1.27;0.50;;;;;;;;;;4923115;29;20027;-80
2020/12/22 09:56:12;;;;;;;5.88;0.80;;;;;;;;;;4921866;29;20031;-80
2020/12/22 09:58:37;;;;;;;1.15;0.60;;;;;;;;;;4916064;29;20021;-82
2020/12/22 10:01:02;;;;;;;5.68;0.57;;;;;;;;;;4915256;29;20106;-81
2020/12/22 10:03:28;;;;;;;3.78;0.82;;;;;;;;;;4916672;29;20479;-81
2020/12/22 10:05:53;;;;;;;5.68;0.80;;;;;;;;;;4916048;29;20462;-81
2020/12/22 10:08:18;;;;;;;3.30;0.77;;;;;;;;;;4932743;29;20023;-82
2020/12/22 10:10:43;;;;;;;7.32;1.02;;;;;;;;;;4917410;29;20016;-81
2020/12/22 10:13:08;;;;;;;3.22;0.90;;;;;;;;;;4912146;29;20024;-81
2020/12/22 10:15:33;;;;;;;6.05;1.05;;;;;;;;;;4909864;29;20079;-81
2020/12/22 10:17:59;;;;;;;5.65;1.02;;;;;;;;;;4933593;29;20074;-81
2020/12/22 10:20:24;;;;;;;5.85;0.77;;;;;;;;;;4915947;29;20033;-80
2020/12/22 10:22:49;;;;;;;8.85;0.75;;;;;;;;;;4915206;29;20476;-81
2020/12/22 10:25:14;;;;;;;4.88;0.70;;;;;;;;;;4916542;29;20020;-81
2020/12/22 10:27:39;;;;;;;4.05;1.00;;;;;;;;;;4916969;29;20067;-80
2020/12/22 10:30:05;;;;;;;7.40;1.05;;;;;;;;;;4933800;29;20472;-81
2020/12/22 10:32:31;;;;;;;8.75;0.80;;;;;;;;;;4918299;29;20059;-81
2020/12/22 10:34:56;;;;;;;2.53;0.70;;;;;;;;;;4915071;29;20068;-81
2020/12/22 10:37:22;;;;;;;2.72;0.85;;;;;;;;;;4931429;29;20020;-82
2020/12/22 10:39:51;;;;;;;4.63;0.90;;;;;;;;;;4915797;29;20679;-81
2020/12/22 10:42:16;;;;;;;6.88;0.90;;;;;;;;;;4909912;29;20453;-81
2020/12/22 10:44:41;;;;;;;8.77;0.88;;;;;;;;;;4916519;29;20091;-81
2020/12/22 10:47:06;;;;;;;5.80;1.08;;;;;;;;;;4915697;29;20484;-81
2020/12/22 10:49:31;;;;;;;5.38;1.00;;;;;;;;;;4916355;29;20027;-81
2020/12/22 10:51:57;;;;;;;3.97;0.95;;;;;;;;;;4915888;29;20047;-80
2020/12/22 10:54:23;;;;;;;4.15;0.80;;;;;;;;;;4916268;29;20103;-81
2020/12/22 10:56:48;;;;;;;3.50;0.90;;;;;;;;;;4916526;29;20024;-81
2020/12/22 10:59:14;;;;;;;4.43;0.95;;;;;;;;;;4929887;29;20039;-81
2020/12/22 11:01:39;;;;;;;3.05;1.00;;;;;;;;;;4910521;29;20032;-82
2020/12/22 11:04:05;;;;;;;7.55;1.48;;;;;;;;;;4915134;29;20166;-81
2020/12/22 11:08:55;;;;;;;4.55;1.10;;;;;;;;;;4934189;29;20033;-81
2020/12/22 11:11:20;;;;;;;4.95;1.10;;;;;;;;;;4919901;29;20034;-82
2020/12/22 11:13:46;;;;;;;3.40;0.90;;;;;;;;;;4919034;29;20151;-81
2020/12/22 11:16:11;;;;;;;2.97;1.00;;;;;;;;;;4936636;29;20320;-82
2020/12/22 11:18:37;;;;;;;6.30;1.70;;;;;;;;;;4918874;29;20059;-82
2020/12/22 11:21:02;;;;;;;4.00;1.38;;;;;;;;;;4914365;29;20053;-82
2020/12/22 11:23:27;;;;;;;5.30;1.42;;;;;;;;;;4911651;29;20059;-81
2020/12/22 11:25:53;;;;;;;6.22;1.20;;;;;;;;;;4915143;29;20028;-81
2020/12/22 11:28:18;;;;;;;5.90;1.40;;;;;;;;;;4910968;29;20072;-81
2020/12/22 11:30:43;;;;;;;8.50;1.25;;;;;;;;;;4919092;29;20031;-81
2020/12/22 11:33:09;;;;;;;5.63;1.80;;;;;;;;;;4919289;29;20115;-81
2020/12/22 11:35:35;;;;;;;5.63;1.48;;;;;;;;;;4936509;29;20075;-81
2020/12/22 11:38:00;;;;;;;6.38;0.88;;;;;;;;;;4936675;29;20514;-81
2020/12/22 11:40:25;;;;;;;3.28;0.88;;;;;;;;;;4919384;29;20019;-79
2020/12/22 11:42:50;;;;;;;4.78;0.50;;;;;;;;;;4935086;29;20020;-81
2020/12/22 11:45:15;;;;;;;6.07;0.73;;;;;;;;;;4913444;29;20107;-81
2020/12/22 11:47:41;;;;;;;4.78;1.00;;;;;;;;;;4920378;29;20055;-81
2020/12/22 11:50:06;;;;;;;5.68;1.10;;;;;;;;;;4919933;29;20058;-81
2020/12/22 11:52:32;;;;;;;8.00;0.90;;;;;;;;;;4936913;29;20027;-81
2020/12/22 11:54:57;;;;;;;5.72;1.10;;;;;;;;;;4936488;29;20028;-81
2020/12/22 11:57:22;;;;;;;3.03;0.60;;;;;;;;;;4915756;29;20063;-81
2020/12/22 11:59:47;;;;;;;7.63;0.82;;;;;;;;;;4936349;29;20028;-81
2020/12/22 12:02:13;;;;;;;4.93;0.60;;;;;;;;;;4936622;29;20024;-81
2020/12/22 12:04:38;;;;;;;3.22;0.60;;;;;;;;;;4919556;29;20114;-82
2020/12/22 12:07:03;;;;;;;2.80;0.50;;;;;;;;;;4919492;29;20083;-82
2020/12/22 12:09:28;;;;;;;3.15;0.50;;;;;;;;;;4935949;29;20336;-82
2020/12/22 12:11:54;;;;;;;2.42;0.50;;;;;;;;;;4918707;29;20033;-81
2020/12/22 12:14:19;;;;;;;2.00;0.60;;;;;;;;;;4936039;29;20384;-81
2020/12/22 12:16:45;;;;;;;2.17;0.50;;;;;;;;;;4931799;29;20016;-81
2020/12/22 12:19:10;;;;;;;4.57;0.38;;;;;;;;;;4931758;29;20519;-81
2020/12/22 12:21:35;;;;;;;4.72;0.80;;;;;;;;;;4917671;29;20110;-82
2020/12/22 12:24:01;;;;;;;4.85;0.60;;;;;;;;;;4935476;29;20024;-81
2020/12/22 12:26:27;;;;;;;3.17;0.82;;;;;;;;;;4910256;29;20027;-81
2020/12/22 12:28:52;;;;;;;7.90;0.60;;;;;;;;;;4935745;29;20066;-81
2020/12/22 12:31:21;;;;;;;3.65;0.63;;;;;;;;;;4917692;29;20078;-81
2020/12/22 12:33:46;;;;;;;4.65;0.80;;;;;;;;;;4918588;29;20032;-81
2020/12/22 12:36:12;;;;;;;1.90;0.60;;;;;;;;;;4916966;29;20317;-81
2020/12/22 12:38:37;;;;;;;4.82;1.05;;;;;;;;;;4917867;29;20039;-82
2020/12/22 12:41:02;;;;;;;3.95;0.50;;;;;;;;;;4933837;29;20039;-81
2020/12/22 12:43:28;;;;;;;3.42;1.05;;;;;;;;;;4937235;29;20012;-80
2020/12/22 12:45:53;;;;;;;1.70;0.57;;;;;;;;;;4912742;29;20034;-82
2020/12/22 12:48:18;;;;;;;2.17;0.80;;;;;;;;;;4918192;29;20467;-81
2020/12/22 12:50:43;;;;;;;7.05;0.80;;;;;;;;;;4914710;29;20162;-81
2020/12/22 12:53:08;;;;;;;5.68;0.90;;;;;;;;;;4934640;29;20391;-80
2020/12/22 12:55:33;;;;;;;6.07;0.90;;;;;;;;;;4918075;29;20035;-80
2020/12/22 12:57:59;;;;;;;2.47;0.80;;;;;;;;;;4918298;29;20102;-81
2020/12/22 13:00:25;;;;;;;2.25;0.90;;;;;;;;;;4917780;29;20796;-81
2020/12/22 13:02:50;;;;;;;3.85;1.00;;;;;;;;;;4918197;29;20038;-81
2020/12/22 13:05:15;;;;;;;6.30;1.13;;;;;;;;;;4917158;29;20360;-81
2020/12/22 13:07:40;;;;;;;4.85;0.80;;;;;;;;;;4913970;29;20042;-81
2020/12/22 13:10:06;;;;;;;4.30;0.90;;;;;;;;;;4918301;29;20028;-81
2020/12/22 13:12:31;;;;;;;2.20;0.70;;;;;;;;;;4918058;29;20020;-81
2020/12/22 13:14:56;;;;;;;4.63;0.90;;;;;;;;;;4935433;29;20015;-81
2020/12/22 13:17:22;;;;;;;8.80;1.10;;;;;;;;;;4916883;29;20463;-80
2020/12/22 13:19:47;;;;;;;3.85;0.95;;;;;;;;;;4917300;29;20099;-81
2020/12/22 13:22:12;;;;;;;3.20;1.00;;;;;;;;;;4934538;29;20028;-81
2020/12/22 13:24:38;;;;;;;6.43;1.00;;;;;;;;;;4934266;29;20804;-81
2020/12/22 13:27:03;;;;;;;2.75;1.10;;;;;;;;;;4912584;29;20106;-80
2020/12/22 13:29:28;;;;;;;2.67;1.08;;;;;;;;;;4917344;29;20384;-81
2020/12/22 13:31:53;;;;;;;2.22;0.90;;;;;;;;;;4916353;29;20051;-81
2020/12/22 13:34:18;;;;;;;7.50;1.25;;;;;;;;;;4917737;29;20028;-81
2020/12/22 13:36:44;;;;;;;6.35;1.08;;;;;;;;;;4930440;29;20063;-81
2020/12/22 13:39:09;;;;;;;5.68;1.17;;;;;;;;;;4915868;29;20461;-80
2020/12/22 13:41:34;;;;;;;6.82;1.00;;;;;;;;;;4931495;29;20034;-79
2020/12/22 13:43:59;;;;;;;6.03;1.20;;;;;;;;;;4916062;29;20165;-79
2020/12/22 13:46:25;;;;;;;6.00;1.38;;;;;;;;;;4915149;29;20174;-81
2020/12/22 13:48:51;;;;;;;4.00;0.90;;;;;;;;;;4917151;29;20035;-81
2020/12/22 13:51:16;;;;;;;4.88;1.05;;;;;;;;;;4915963;29;20087;-80
2020/12/22 13:53:41;;;;;;;8.13;1.00;;;;;;;;;;4915918;29;20020;-81
2020/12/22 13:56:07;;;;;;;4.88;1.42;;;;;;;;;;4919851;29;20027;-81
2020/12/22 13:58:32;;;;;;;6.30;1.10;;;;;;;;;;4915521;29;20051;-81
2020/12/22 14:00:57;;;;;;;3.58;1.17;;;;;;;;;;4912419;29;20467;-81
2020/12/22 14:03:22;;;;;;;7.38;1.30;;;;;;;;;;4917304;29;20522;-80
2020/12/22 14:05:47;;;;;;;5.85;1.08;;;;;;;;;;4917808;29;20051;-80
2020/12/22 14:08:13;;;;;;;5.65;1.08;;;;;;;;;;4918116;29;20042;-80
2020/12/22 14:10:38;;;;;;;10.10;1.20;;;;;;;;;;4932375;29;20024;-79
2020/12/22 14:13:03;;;;;;;3.00;1.10;;;;;;;;;;4912068;29;20503;-80
2020/12/22 14:15:28;;;;;;;4.45;1.15;;;;;;;;;;4904999;29;20015;-79
2020/12/22 14:17:53;;;;;;;10.45;1.38;;;;;;;;;;4927625;29;20092;-80
2020/12/22 14:20:19;;;;;;;3.42;1.23;;;;;;;;;;4917304;29;20027;-80
2020/12/22 14:22:44;;;;;;;5.18;1.20;;;;;;;;;;4913752;29;20375;-79
2020/12/22 14:25:10;;;;;;;5.38;0.90;;;;;;;;;;4917907;29;20043;-79
2020/12/22 14:27:35;;;;;;;3.55;0.98;;;;;;;;;;4914574;29;20116;-80
2020/12/22 14:30:00;;;;;;;4.38;0.95;;;;;;;;;;4917726;29;20404;-80
2020/12/22 14:32:25;;;;;;;2.30;0.82;;;;;;;;;;4917368;29;20018;-79
2020/12/22 14:34:51;;;;;;;3.80;0.80;;;;;;;;;;4915725;29;20447;-80
2020/12/22 14:37:16;;;;;;;2.58;0.75;;;;;;;;;;4916557;29;20028;-80
2020/12/22 14:39:41;;;;;;;3.95;0.82;;;;;;;;;;4916230;29;20127;-80